sensor_id;sensor_type;location;lat;lon;timestamp;pressure;altitude;pressure_sealevel;temperature;humidity
25869;BME280;13688;53.154;18.136;2023-06-14T00:00:24;101228.75;;;13.42;74.80
25869;BME280;13688;53.154;18.136;2023-06-14T00:05:50;101229.61;;;13.42;74.87
25869;BME280;13688;53.154;18.136;2023-06-14T00:11:13;101222.38;;;13.32;75.08
25869;BME280;13688;53.154;18.136;2023-06-14T00:16:36;101223.72;;;13.26;75.50
25869;BME280;13688;53.154;18.136;2023-06-14T00:21:59;101225.70;;;13.24;75.78
25869;BME280;13688;53.154;18.136;2023-06-14T00:27:23;101229.96;;;13.15;76.22
25869;BME280;13688;53.154;18.136;2023-06-14T00:32:46;101221.23;;;13.12;76.89
25869;BME280;13688;53.154;18.136;2023-06-14T00:38:09;101214.75;;;13.14;77.12
25869;BME280;13688;53.154;18.136;2023-06-14T00:43:31;101215.47;;;13.16;77.33
25869;BME280;13688;53.154;18.136;2023-06-14T00:48:54;101213.38;;;13.09;77.75
25869;BME280;13688;53.154;18.136;2023-06-14T00:54:18;101190.45;;;13.03;78.77
25869;BME280;13688;53.154;18.136;2023-06-14T00:59:44;101194.62;;;12.96;79.12
25869;BME280;13688;53.154;18.136;2023-06-14T01:05:06;101181.99;;;12.85;79.67
25869;BME280;13688;53.154;18.136;2023-06-14T01:16:03;101173.64;;;12.88;80.26
25869;BME280;13688;53.154;18.136;2023-06-14T01:21:28;101171.19;;;12.97;80.18
25869;BME280;13688;53.154;18.136;2023-06-14T01:26:53;101155.22;;;13.16;79.85
25869;BME280;13688;53.154;18.136;2023-06-14T01:32:17;101168.13;;;13.24;79.09
25869;BME280;13688;53.154;18.136;2023-06-14T01:37:41;101170.42;;;13.17;78.64
25869;BME280;13688;53.154;18.136;2023-06-14T01:43:05;101162.70;;;13.01;78.70
25869;BME280;13688;53.154;18.136;2023-06-14T01:48:29;101164.30;;;12.93;79.35
25869;BME280;13688;53.154;18.136;2023-06-14T01:53:51;101159.76;;;12.93;79.92
25869;BME280;13688;53.154;18.136;2023-06-14T01:59:14;101142.23;;;12.87;79.71
25869;BME280;13688;53.154;18.136;2023-06-14T02:04:36;101148.63;;;12.86;79.33
25869;BME280;13688;53.154;18.136;2023-06-14T02:09:59;101147.64;;;12.87;78.82
25869;BME280;13688;53.154;18.136;2023-06-14T02:15:22;101141.51;;;12.85;78.73
25869;BME280;13688;53.154;18.136;2023-06-14T02:20:45;101145.19;;;12.84;78.57
25869;BME280;13688;53.154;18.136;2023-06-14T02:26:07;101153.29;;;12.84;78.48
25869;BME280;13688;53.154;18.136;2023-06-14T02:31:31;101153.89;;;12.88;78.48
25869;BME280;13688;53.154;18.136;2023-06-14T02:36:56;101152.91;;;12.89;78.56
25869;BME280;13688;53.154;18.136;2023-06-14T02:42:19;101152.78;;;12.79;78.50
25869;BME280;13688;53.154;18.136;2023-06-14T02:47:42;101141.39;;;12.76;78.56
25869;BME280;13688;53.154;18.136;2023-06-14T02:53:05;101131.80;;;12.72;78.76
25869;BME280;13688;53.154;18.136;2023-06-14T02:58:28;101123.97;;;12.69;78.97
25869;BME280;13688;53.154;18.136;2023-06-14T03:03:51;101129.62;;;12.66;79.37
25869;BME280;13688;53.154;18.136;2023-06-14T03:09:13;101119.05;;;12.63;80.08
25869;BME280;13688;53.154;18.136;2023-06-14T03:14:38;101122.26;;;12.56;80.69
25869;BME280;13688;53.154;18.136;2023-06-14T03:20:01;101113.53;;;12.53;81.61
25869;BME280;13688;53.154;18.136;2023-06-14T03:25:24;101122.48;;;12.53;82.26
25869;BME280;13688;53.154;18.136;2023-06-14T03:30:48;101124.32;;;12.53;82.08
25869;BME280;13688;53.154;18.136;2023-06-14T03:36:11;101135.11;;;12.53;82.15
25869;BME280;13688;53.154;18.136;2023-06-14T03:41:35;101130.83;;;12.61;81.86
25869;BME280;13688;53.154;18.136;2023-06-14T03:46:57;101121.14;;;12.70;81.30
25869;BME280;13688;53.154;18.136;2023-06-14T03:52:20;101131.68;;;12.73;81.02
25869;BME280;13688;53.154;18.136;2023-06-14T03:57:43;101126.67;;;12.69;80.87
25869;BME280;13688;53.154;18.136;2023-06-14T04:03:05;101132.19;;;12.67;81.45
25869;BME280;13688;53.154;18.136;2023-06-14T04:08:30;101136.72;;;12.78;82.09
25869;BME280;13688;53.154;18.136;2023-06-14T04:13:52;101149.48;;;12.87;82.42
25869;BME280;13688;53.154;18.136;2023-06-14T04:19:15;101153.77;;;12.89;83.31
25869;BME280;13688;53.154;18.136;2023-06-14T04:24:39;101159.91;;;13.03;84.95
25869;BME280;13688;53.154;18.136;2023-06-14T04:30:04;101156.70;;;12.98;85.95
25869;BME280;13688;53.154;18.136;2023-06-14T04:35:29;101166.27;;;12.90;87.70
25869;BME280;13688;53.154;18.136;2023-06-14T04:40:52;101171.66;;;13.02;89.69
25869;BME280;13688;53.154;18.136;2023-06-14T04:46:15;101163.08;;;13.08;90.79
25869;BME280;13688;53.154;18.136;2023-06-14T04:51:38;101157.06;;;13.27;89.93
25869;BME280;13688;53.154;18.136;2023-06-14T04:57:04;101142.90;;;13.45;88.34
25869;BME280;13688;53.154;18.136;2023-06-14T05:02:30;101147.27;;;13.58;85.59
25869;BME280;13688;53.154;18.136;2023-06-14T05:07:53;101148.56;;;13.74;82.38
25869;BME280;13688;53.154;18.136;2023-06-14T05:13:15;101141.18;;;13.77;79.43
25869;BME280;13688;53.154;18.136;2023-06-14T05:18:38;101157.88;;;13.82;78.24
25869;BME280;13688;53.154;18.136;2023-06-14T05:24:01;101183.09;;;14.03;77.51
25869;BME280;13688;53.154;18.136;2023-06-14T05:29:24;101169.20;;;14.28;77.68
25869;BME280;13688;53.154;18.136;2023-06-14T05:34:47;101161.47;;;14.24;77.20
25869;BME280;13688;53.154;18.136;2023-06-14T05:40:10;101140.48;;;14.16;77.91
25869;BME280;13688;53.154;18.136;2023-06-14T05:45:33;101126.38;;;14.13;78.66
25869;BME280;13688;53.154;18.136;2023-06-14T05:50:55;101130.44;;;14.28;79.72
25869;BME280;13688;53.154;18.136;2023-06-14T05:56:19;101111.73;;;14.67;77.80
25869;BME280;13688;53.154;18.136;2023-06-14T06:01:41;101116.34;;;15.16;74.77
25869;BME280;13688;53.154;18.136;2023-06-14T06:07:04;101123.12;;;15.80;71.67
25869;BME280;13688;53.154;18.136;2023-06-14T06:12:26;101132.78;;;16.21;67.97
25869;BME280;13688;53.154;18.136;2023-06-14T06:17:49;101136.67;;;16.65;66.27
25869;BME280;13688;53.154;18.136;2023-06-14T06:23:11;101149.58;;;16.53;63.22
25869;BME280;13688;53.154;18.136;2023-06-14T06:28:34;101143.26;;;16.72;61.98
25869;BME280;13688;53.154;18.136;2023-06-14T06:33:57;101138.86;;;16.99;60.14
25869;BME280;13688;53.154;18.136;2023-06-14T06:39:19;101154.38;;;17.06;59.71
25869;BME280;13688;53.154;18.136;2023-06-14T06:44:42;101159.06;;;17.41;58.87
25869;BME280;13688;53.154;18.136;2023-06-14T06:50:05;101162.09;;;17.56;58.36
25869;BME280;13688;53.154;18.136;2023-06-14T06:55:28;101173.88;;;17.74;58.01
25869;BME280;13688;53.154;18.136;2023-06-14T07:00:51;101174.20;;;17.71;58.07
25869;BME280;13688;53.154;18.136;2023-06-14T07:06:13;101179.09;;;17.40;57.18
25869;BME280;13688;53.154;18.136;2023-06-14T07:11:39;101185.71;;;17.56;58.49
25869;BME280;13688;53.154;18.136;2023-06-14T07:17:02;101177.65;;;17.64;58.77
25869;BME280;13688;53.154;18.136;2023-06-14T07:22:25;101189.66;;;17.71;58.33
25869;BME280;13688;53.154;18.136;2023-06-14T07:27:47;101194.38;;;17.69;58.32
25869;BME280;13688;53.154;18.136;2023-06-14T07:33:10;101182.61;;;17.96;57.98
25869;BME280;13688;53.154;18.136;2023-06-14T07:38:33;101167.99;;;17.97;55.98
25869;BME280;13688;53.154;18.136;2023-06-14T07:43:55;101161.70;;;17.79;56.96
25869;BME280;13688;53.154;18.136;2023-06-14T07:49:18;101185.52;;;17.67;58.20
25869;BME280;13688;53.154;18.136;2023-06-14T07:54:40;101167.59;;;17.29;58.01
25869;BME280;13688;53.154;18.136;2023-06-14T08:00:03;101160.07;;;17.40;57.56
25869;BME280;13688;53.154;18.136;2023-06-14T08:05:28;101154.55;;;17.78;57.53
25869;BME280;13688;53.154;18.136;2023-06-14T08:10:51;101155.68;;;18.11;56.79
25869;BME280;13688;53.154;18.136;2023-06-14T08:16:13;101160.57;;;18.51;56.40
25869;BME280;13688;53.154;18.136;2023-06-14T08:21:36;101163.59;;;18.92;53.74
25869;BME280;13688;53.154;18.136;2023-06-14T08:27:00;101163.13;;;18.52;53.49
25869;BME280;13688;53.154;18.136;2023-06-14T08:32:23;101172.85;;;18.73;54.37
25869;BME280;13688;53.154;18.136;2023-06-14T08:37:46;101187.95;;;19.35;51.79
25869;BME280;13688;53.154;18.136;2023-06-14T08:43:08;101185.49;;;19.58;51.00
25869;BME280;13688;53.154;18.136;2023-06-14T08:48:35;101183.20;;;20.20;49.86
25869;BME280;13688;53.154;18.136;2023-06-14T08:54:00;101171.91;;;20.64;48.13
25869;BME280;13688;53.154;18.136;2023-06-14T08:59:26;101178.08;;;20.66;48.09
25869;BME280;13688;53.154;18.136;2023-06-14T09:04:50;101178.32;;;21.04;47.43
25869;BME280;13688;53.154;18.136;2023-06-14T09:10:14;101182.70;;;20.49;47.00
25869;BME280;13688;53.154;18.136;2023-06-14T09:15:38;101184.30;;;20.99;48.31
25869;BME280;13688;53.154;18.136;2023-06-14T09:21:02;101188.46;;;20.79;48.48
25869;BME280;13688;53.154;18.136;2023-06-14T09:26:25;101187.79;;;20.36;49.34
25869;BME280;13688;53.154;18.136;2023-06-14T09:31:48;101186.09;;;20.35;48.73
25869;BME280;13688;53.154;18.136;2023-06-14T09:37:11;101179.44;;;20.62;48.66
25869;BME280;13688;53.154;18.136;2023-06-14T09:42:57;101170.45;;;21.01;46.64
25869;BME280;13688;53.154;18.136;2023-06-14T09:48:21;101162.34;;;20.76;46.83
25869;BME280;13688;53.154;18.136;2023-06-14T09:53:45;101170.72;;;20.42;48.49
25869;BME280;13688;53.154;18.136;2023-06-14T09:59:25;101155.10;;;21.39;46.48
25869;BME280;13688;53.154;18.136;2023-06-14T10:04:55;101167.11;;;20.74;46.44
25869;BME280;13688;53.154;18.136;2023-06-14T10:10:24;101169.11;;;21.44;45.93
25869;BME280;13688;53.154;18.136;2023-06-14T10:16:20;101148.66;;;21.86;43.02
25869;BME280;13688;53.154;18.136;2023-06-14T10:22:09;101153.62;;;21.20;45.67
25869;BME280;13688;53.154;18.136;2023-06-14T10:27:44;101154.60;;;21.66;44.47
25869;BME280;13688;53.154;18.136;2023-06-14T10:33:13;101149.39;;;22.93;42.11
25869;BME280;13688;53.154;18.136;2023-06-14T10:38:37;101140.56;;;24.48;37.77
25869;BME280;13688;53.154;18.136;2023-06-14T10:50:06;101123.28;;;24.54;35.22
25869;BME280;13688;53.154;18.136;2023-06-14T10:55:29;101116.05;;;24.81;32.77
25869;BME280;13688;53.154;18.136;2023-06-14T11:00:54;101123.43;;;24.46;34.82
25869;BME280;13688;53.154;18.136;2023-06-14T11:06:21;101118.66;;;24.96;33.30
25869;BME280;13688;53.154;18.136;2023-06-14T11:11:46;101102.22;;;25.03;34.11
25869;BME280;13688;53.154;18.136;2023-06-14T11:17:11;101106.11;;;25.22;32.70
25869;BME280;13688;53.154;18.136;2023-06-14T11:22:45;101104.37;;;24.73;32.66
25869;BME280;13688;53.154;18.136;2023-06-14T11:28:04;101108.19;;;23.94;35.53
25869;BME280;13688;53.154;18.136;2023-06-14T11:33:29;101105.45;;;24.44;36.43
25869;BME280;13688;53.154;18.136;2023-06-14T11:38:57;101107.23;;;24.99;35.93
25869;BME280;13688;53.154;18.136;2023-06-14T11:44:19;101104.22;;;24.25;36.30
25869;BME280;13688;53.154;18.136;2023-06-14T11:49:42;101112.30;;;22.67;39.86
25869;BME280;13688;53.154;18.136;2023-06-14T11:55:05;101103.08;;;22.16;41.47
25869;BME280;13688;53.154;18.136;2023-06-14T12:00:31;101107.63;;;22.23;41.51
25869;BME280;13688;53.154;18.136;2023-06-14T12:06:05;101114.89;;;21.93;42.50
25869;BME280;13688;53.154;18.136;2023-06-14T12:11:32;101098.54;;;21.62;42.71
25869;BME280;13688;53.154;18.136;2023-06-14T12:17:03;101098.36;;;20.94;43.13
25869;BME280;13688;53.154;18.136;2023-06-14T12:22:23;101095.90;;;20.76;43.19
25869;BME280;13688;53.154;18.136;2023-06-14T12:27:46;101090.17;;;20.38;42.51
25869;BME280;13688;53.154;18.136;2023-06-14T12:33:11;101096.66;;;20.37;42.90
25869;BME280;13688;53.154;18.136;2023-06-14T12:38:34;101096.65;;;20.45;42.05
25869;BME280;13688;53.154;18.136;2023-06-14T12:43:59;101098.20;;;20.48;41.07
25869;BME280;13688;53.154;18.136;2023-06-14T12:49:23;101105.55;;;20.47;41.53
25869;BME280;13688;53.154;18.136;2023-06-14T12:54:45;101119.36;;;20.38;42.71
25869;BME280;13688;53.154;18.136;2023-06-14T13:00:08;101121.25;;;20.13;45.29
25869;BME280;13688;53.154;18.136;2023-06-14T13:05:32;101123.48;;;20.01;45.64
25869;BME280;13688;53.154;18.136;2023-06-14T13:10:54;101137.78;;;19.62;46.27
25869;BME280;13688;53.154;18.136;2023-06-14T13:16:17;101138.81;;;19.11;49.48
25869;BME280;13688;53.154;18.136;2023-06-14T13:21:40;101141.65;;;18.67;52.53
25869;BME280;13688;53.154;18.136;2023-06-14T13:27:03;101130.75;;;17.97;56.42
25869;BME280;13688;53.154;18.136;2023-06-14T13:32:29;101131.11;;;17.49;58.23
25869;BME280;13688;53.154;18.136;2023-06-14T13:37:52;101128.43;;;17.22;60.15
25869;BME280;13688;53.154;18.136;2023-06-14T13:43:15;101120.92;;;17.06;62.04
25869;BME280;13688;53.154;18.136;2023-06-14T13:48:38;101120.70;;;16.99;63.59
25869;BME280;13688;53.154;18.136;2023-06-14T13:54:00;101132.16;;;17.21;64.16
25869;BME280;13688;53.154;18.136;2023-06-14T13:59:24;101131.84;;;17.24;64.41
25869;BME280;13688;53.154;18.136;2023-06-14T14:04:47;101131.94;;;17.32;65.56
25869;BME280;13688;53.154;18.136;2023-06-14T14:10:10;101138.33;;;17.40;65.24
25869;BME280;13688;53.154;18.136;2023-06-14T14:15:33;101152.55;;;17.52;66.27
25869;BME280;13688;53.154;18.136;2023-06-14T14:20:56;101152.03;;;17.66;65.27
25869;BME280;13688;53.154;18.136;2023-06-14T14:26:20;101141.72;;;17.70;57.23
25869;BME280;13688;53.154;18.136;2023-06-14T14:31:43;101129.81;;;18.07;52.00
25869;BME280;13688;53.154;18.136;2023-06-14T14:37:06;101130.77;;;18.23;49.57
25869;BME280;13688;53.154;18.136;2023-06-14T14:42:29;101126.62;;;18.37;48.56
25869;BME280;13688;53.154;18.136;2023-06-14T14:47:52;101125.77;;;18.37;48.43
25869;BME280;13688;53.154;18.136;2023-06-14T14:53:15;101125.44;;;18.40;48.53
25869;BME280;13688;53.154;18.136;2023-06-14T14:58:37;101121.28;;;18.27;48.86
25869;BME280;13688;53.154;18.136;2023-06-14T15:04:01;101128.72;;;17.99;50.98
25869;BME280;13688;53.154;18.136;2023-06-14T15:09:24;101129.39;;;17.66;52.54
25869;BME280;13688;53.154;18.136;2023-06-14T15:14:47;101127.70;;;17.47;54.75
25869;BME280;13688;53.154;18.136;2023-06-14T15:20:10;101119.45;;;17.39;55.57
25869;BME280;13688;53.154;18.136;2023-06-14T15:25:34;101119.90;;;17.34;57.59
25869;BME280;13688;53.154;18.136;2023-06-14T15:30:59;101120.39;;;17.02;57.91
25869;BME280;13688;53.154;18.136;2023-06-14T15:36:22;101113.53;;;16.98;58.88
25869;BME280;13688;53.154;18.136;2023-06-14T15:41:45;101115.55;;;16.96;59.96
25869;BME280;13688;53.154;18.136;2023-06-14T15:47:08;101105.47;;;16.79;60.80
25869;BME280;13688;53.154;18.136;2023-06-14T15:52:31;101108.11;;;16.71;62.40
25869;BME280;13688;53.154;18.136;2023-06-14T15:57:54;101114.98;;;16.55;63.15
25869;BME280;13688;53.154;18.136;2023-06-14T16:03:17;101112.70;;;16.60;64.67
25869;BME280;13688;53.154;18.136;2023-06-14T16:08:40;101116.81;;;16.65;65.65
25869;BME280;13688;53.154;18.136;2023-06-14T16:14:02;101121.54;;;16.63;66.86
25869;BME280;13688;53.154;18.136;2023-06-14T16:19:25;101126.70;;;16.56;67.29
25869;BME280;13688;53.154;18.136;2023-06-14T16:24:47;101126.58;;;16.48;66.77
25869;BME280;13688;53.154;18.136;2023-06-14T16:30:10;101125.06;;;16.26;69.17
25869;BME280;13688;53.154;18.136;2023-06-14T16:35:33;101134.89;;;16.37;73.25
25869;BME280;13688;53.154;18.136;2023-06-14T16:40:55;101134.36;;;16.23;75.71
25869;BME280;13688;53.154;18.136;2023-06-14T16:46:30;101141.66;;;16.23;78.42
25869;BME280;13688;53.154;18.136;2023-06-14T16:51:51;101153.08;;;16.07;80.41
25869;BME280;13688;53.154;18.136;2023-06-14T16:57:13;101152.39;;;15.86;78.21
25869;BME280;13688;53.154;18.136;2023-06-14T17:02:36;101149.37;;;15.89;79.29
25869;BME280;13688;53.154;18.136;2023-06-14T17:07:58;101162.23;;;15.87;82.45
25869;BME280;13688;53.154;18.136;2023-06-14T17:13:21;101171.36;;;15.66;82.29
25869;BME280;13688;53.154;18.136;2023-06-14T17:18:44;101171.86;;;15.51;81.30
25869;BME280;13688;53.154;18.136;2023-06-14T17:24:06;101173.30;;;15.45;82.77
25869;BME280;13688;53.154;18.136;2023-06-14T17:29:31;101170.11;;;15.30;84.43
25869;BME280;13688;53.154;18.136;2023-06-14T17:34:53;101168.77;;;15.15;85.42
25869;BME280;13688;53.154;18.136;2023-06-14T17:40:16;101168.88;;;15.04;86.65
25869;BME280;13688;53.154;18.136;2023-06-14T17:45:40;101173.27;;;14.95;89.03
25869;BME280;13688;53.154;18.136;2023-06-14T17:51:03;101183.13;;;14.96;90.56
25869;BME280;13688;53.154;18.136;2023-06-14T17:56:27;101186.94;;;14.94;90.96
25869;BME280;13688;53.154;18.136;2023-06-14T18:01:50;101183.48;;;14.82;91.49
25869;BME280;13688;53.154;18.136;2023-06-14T18:07:13;101187.84;;;14.73;92.57
25869;BME280;13688;53.154;18.136;2023-06-14T18:12:36;101192.55;;;14.71;93.50
25869;BME280;13688;53.154;18.136;2023-06-14T18:17:58;101201.94;;;14.67;94.98
25869;BME280;13688;53.154;18.136;2023-06-14T18:23:21;101205.75;;;14.65;96.66
25869;BME280;13688;53.154;18.136;2023-06-14T18:28:44;101210.05;;;14.46;97.48
25869;BME280;13688;53.154;18.136;2023-06-14T18:34:06;101186.15;;;14.30;96.87
25869;BME280;13688;53.154;18.136;2023-06-14T18:39:31;101199.81;;;14.29;96.62
25869;BME280;13688;53.154;18.136;2023-06-14T18:44:54;101194.27;;;14.30;97.51
25869;BME280;13688;53.154;18.136;2023-06-14T18:50:17;101207.24;;;14.37;98.78
25869;BME280;13688;53.154;18.136;2023-06-14T18:55:39;101194.98;;;14.32;99.95
25869;BME280;13688;53.154;18.136;2023-06-14T19:01:02;101196.05;;;14.20;100.00
25869;BME280;13688;53.154;18.136;2023-06-14T19:06:25;101197.68;;;14.12;100.00
25869;BME280;13688;53.154;18.136;2023-06-14T19:11:48;101200.89;;;14.06;100.00
25869;BME280;13688;53.154;18.136;2023-06-14T19:17:10;101202.02;;;14.03;100.00
25869;BME280;13688;53.154;18.136;2023-06-14T19:22:33;101208.42;;;14.02;100.00
25869;BME280;13688;53.154;18.136;2023-06-14T19:27:56;101206.63;;;13.91;100.00
25869;BME280;13688;53.154;18.136;2023-06-14T19:33:18;101213.89;;;13.80;100.00
25869;BME280;13688;53.154;18.136;2023-06-14T19:38:41;101209.52;;;13.67;100.00
25869;BME280;13688;53.154;18.136;2023-06-14T19:44:04;101213.70;;;13.60;100.00
25869;BME280;13688;53.154;18.136;2023-06-14T19:49:27;101213.96;;;13.57;100.00
25869;BME280;13688;53.154;18.136;2023-06-14T19:54:50;101217.78;;;13.55;100.00
25869;BME280;13688;53.154;18.136;2023-06-14T20:00:13;101216.20;;;13.52;100.00
25869;BME280;13688;53.154;18.136;2023-06-14T20:05:36;101211.29;;;13.46;100.00
25869;BME280;13688;53.154;18.136;2023-06-14T20:11:01;101226.91;;;13.42;100.00
25869;BME280;13688;53.154;18.136;2023-06-14T20:16:25;101227.13;;;13.39;100.00
25869;BME280;13688;53.154;18.136;2023-06-14T20:21:48;101232.80;;;13.36;100.00
25869;BME280;13688;53.154;18.136;2023-06-14T20:27:11;101234.38;;;13.39;100.00
25869;BME280;13688;53.154;18.136;2023-06-14T20:32:34;101240.87;;;13.48;100.00
25869;BME280;13688;53.154;18.136;2023-06-14T20:37:56;101240.39;;;13.54;100.00
25869;BME280;13688;53.154;18.136;2023-06-14T20:43:19;101237.30;;;13.58;100.00
25869;BME280;13688;53.154;18.136;2023-06-14T20:48:43;101227.34;;;13.59;100.00
25869;BME280;13688;53.154;18.136;2023-06-14T20:54:05;101240.52;;;13.52;100.00
25869;BME280;13688;53.154;18.136;2023-06-14T20:59:28;101230.59;;;13.41;100.00
25869;BME280;13688;53.154;18.136;2023-06-14T21:04:51;101233.52;;;13.38;100.00
25869;BME280;13688;53.154;18.136;2023-06-14T21:10:13;101220.42;;;13.23;100.00
25869;BME280;13688;53.154;18.136;2023-06-14T21:15:40;101215.60;;;13.15;100.00
25869;BME280;13688;53.154;18.136;2023-06-14T21:21:03;101212.66;;;13.07;100.00
25869;BME280;13688;53.154;18.136;2023-06-14T21:26:25;101213.52;;;13.07;100.00
25869;BME280;13688;53.154;18.136;2023-06-14T21:31:47;101215.10;;;12.99;100.00
25869;BME280;13688;53.154;18.136;2023-06-14T21:37:10;101205.64;;;12.93;100.00
25869;BME280;13688;53.154;18.136;2023-06-14T21:42:33;101202.72;;;12.85;100.00
25869;BME280;13688;53.154;18.136;2023-06-14T21:47:56;101195.36;;;12.76;100.00
25869;BME280;13688;53.154;18.136;2023-06-14T21:53:18;101207.36;;;12.72;100.00
25869;BME280;13688;53.154;18.136;2023-06-14T21:58:41;101197.41;;;12.61;100.00
25869;BME280;13688;53.154;18.136;2023-06-14T22:04:04;101192.87;;;12.61;100.00
25869;BME280;13688;53.154;18.136;2023-06-14T22:09:26;101191.77;;;12.64;100.00
25869;BME280;13688;53.154;18.136;2023-06-14T22:14:49;101183.58;;;12.66;100.00
25869;BME280;13688;53.154;18.136;2023-06-14T22:20:14;101181.48;;;12.58;100.00
25869;BME280;13688;53.154;18.136;2023-06-14T22:25:38;101177.66;;;12.49;100.00
25869;BME280;13688;53.154;18.136;2023-06-14T22:31:01;101162.72;;;12.45;100.00
25869;BME280;13688;53.154;18.136;2023-06-14T22:36:26;101170.68;;;12.47;100.00
25869;BME280;13688;53.154;18.136;2023-06-14T22:41:50;101162.59;;;12.47;100.00
25869;BME280;13688;53.154;18.136;2023-06-14T22:47:14;101160.88;;;12.46;100.00
25869;BME280;13688;53.154;18.136;2023-06-14T22:52:38;101156.55;;;12.43;100.00
25869;BME280;13688;53.154;18.136;2023-06-14T22:58:00;101153.13;;;12.41;100.00
25869;BME280;13688;53.154;18.136;2023-06-14T23:03:24;101151.16;;;12.43;100.00
25869;BME280;13688;53.154;18.136;2023-06-14T23:08:47;101148.45;;;12.32;100.00
25869;BME280;13688;53.154;18.136;2023-06-14T23:14:11;101145.88;;;12.30;100.00
25869;BME280;13688;53.154;18.136;2023-06-14T23:19:34;101144.55;;;12.36;100.00
25869;BME280;13688;53.154;18.136;2023-06-14T23:24:57;101136.94;;;12.30;100.00
25869;BME280;13688;53.154;18.136;2023-06-14T23:30:20;101139.38;;;12.33;100.00
25869;BME280;13688;53.154;18.136;2023-06-14T23:35:43;101134.63;;;12.37;100.00
25869;BME280;13688;53.154;18.136;2023-06-14T23:41:07;101130.82;;;12.39;100.00
25869;BME280;13688;53.154;18.136;2023-06-14T23:46:32;101136.95;;;12.41;100.00
25869;BME280;13688;53.154;18.136;2023-06-14T23:51:55;101134.12;;;12.43;100.00
25869;BME280;13688;53.154;18.136;2023-06-14T23:57:17;101125.81;;;12.46;100.00
